Time;durP1;ratioP1;P1;durP2;ratioP2;P2;SDS_P1;SDS_P2;PMS_P1;PMS_P2;Temp;Humidity;BMP_temperature;BMP_pressure;BME280_temperature;BME280_humidity;BME280_pressure;Samples;Min_cycle;Max_cycle;Signal;HPM_P1;HPM_P2
2022/03/18 00:00:21;;;;;;;15.17;5.73;;;;;;;;;;5037727;28;20243;-66
2022/03/18 00:02:52;;;;;;;18.90;5.03;;;;;;;;;;5026983;28;20474;-66
2022/03/18 00:05:17;;;;;;;17.70;6.00;;;;;;;;;;5036480;28;20232;-66
2022/03/18 00:07:44;;;;;;;13.53;4.83;;;;;;;;;;5040177;28;20193;-66
2022/03/18 00:10:10;;;;;;;12.33;4.97;;;;;;;;;;5028794;28;20241;-67
2022/03/18 00:12:37;;;;;;;13.37;5.03;;;;;;;;;;5030325;28;22185;-66
2022/03/18 00:15:07;;;;;;;16.17;5.00;;;;;;;;;;5020519;28;20186;-66
2022/03/18 00:17:32;;;;;;;15.67;5.37;;;;;;;;;;5026375;28;20182;-66
2022/03/18 00:19:58;;;;;;;11.27;5.13;;;;;;;;;;5029257;28;20201;-66
2022/03/18 00:22:23;;;;;;;18.73;5.47;;;;;;;;;;5026750;28;20261;-66
2022/03/18 00:24:48;;;;;;;19.90;6.00;;;;;;;;;;5014701;28;20189;-66
2022/03/18 00:27:14;;;;;;;16.93;5.73;;;;;;;;;;5019432;28;20685;-66
2022/03/18 00:29:41;;;;;;;15.27;5.70;;;;;;;;;;5025471;28;20190;-66
2022/03/18 00:32:07;;;;;;;11.00;4.90;;;;;;;;;;5011760;28;20721;-67
2022/03/18 00:34:32;;;;;;;13.30;5.27;;;;;;;;;;5021175;28;20182;-67
2022/03/18 00:36:58;;;;;;;16.07;5.23;;;;;;;;;;5027353;28;20242;-66
2022/03/18 00:39:23;;;;;;;14.90;5.13;;;;;;;;;;5013323;28;20191;-66
2022/03/18 00:41:48;;;;;;;14.37;5.40;;;;;;;;;;5019908;28;20166;-66
2022/03/18 00:44:14;;;;;;;12.07;4.83;;;;;;;;;;5017081;28;20720;-66
2022/03/18 00:46:40;;;;;;;12.87;4.97;;;;;;;;;;5013453;28;20195;-67
2022/03/18 00:52:07;;;;;;;17.13;5.27;;;;;;;;;;5022890;28;20259;-66
2022/03/18 00:54:45;;;;;;;11.93;4.63;;;;;;;;;;5023333;28;20209;-67
2022/03/18 00:57:12;;;;;;;12.53;4.90;;;;;;;;;;5019417;28;20193;-66
2022/03/18 00:59:38;;;;;;;13.60;5.37;;;;;;;;;;5023433;28;20848;-67
2022/03/18 01:02:04;;;;;;;10.67;4.83;;;;;;;;;;5021732;28;20190;-66
2022/03/18 01:04:30;;;;;;;11.17;4.97;;;;;;;;;;5026373;28;20202;-66
2022/03/18 01:06:56;;;;;;;13.67;4.90;;;;;;;;;;5029637;28;20692;-67
2022/03/18 01:09:23;;;;;;;10.37;4.83;;;;;;;;;;5023088;28;20260;-66
2022/03/18 01:11:50;;;;;;;14.13;4.13;;;;;;;;;;5025028;28;20662;-66
2022/03/18 01:14:15;;;;;;;15.20;5.33;;;;;;;;;;5019292;28;20189;-66
2022/03/18 01:16:41;;;;;;;11.50;4.73;;;;;;;;;;5039966;28;20178;-66
2022/03/18 01:19:06;;;;;;;12.13;4.67;;;;;;;;;;5015196;28;20191;-66
2022/03/18 01:21:31;;;;;;;10.23;4.90;;;;;;;;;;5032388;28;20189;-66
2022/03/18 01:23:57;;;;;;;12.23;4.90;;;;;;;;;;5017392;28;20182;-66
2022/03/18 01:26:24;;;;;;;13.17;4.90;;;;;;;;;;5033598;28;20630;-66
2022/03/18 01:28:49;;;;;;;11.87;5.03;;;;;;;;;;5021131;28;20207;-66
2022/03/18 01:31:15;;;;;;;14.33;5.17;;;;;;;;;;5026038;28;20711;-66
2022/03/18 01:33:40;;;;;;;8.67;4.33;;;;;;;;;;5024447;28;20674;-66
2022/03/18 01:36:06;;;;;;;10.80;5.07;;;;;;;;;;5022998;28;20197;-66
2022/03/18 01:38:31;;;;;;;11.77;4.30;;;;;;;;;;5023075;28;20178;-66
2022/03/18 01:40:57;;;;;;;10.13;4.50;;;;;;;;;;5019709;28;20282;-66
2022/03/18 01:43:22;;;;;;;12.70;5.30;;;;;;;;;;5021693;28;20269;-67
2022/03/18 01:45:50;;;;;;;15.87;5.33;;;;;;;;;;5020385;28;20281;-66
2022/03/18 01:48:15;;;;;;;11.23;5.30;;;;;;;;;;5027078;28;20224;-66
2022/03/18 01:50:41;;;;;;;12.07;4.87;;;;;;;;;;5034170;28;20267;-67
2022/03/18 01:53:07;;;;;;;10.17;4.40;;;;;;;;;;5024269;28;20247;-65
2022/03/18 01:55:33;;;;;;;12.00;5.33;;;;;;;;;;5027625;28;20198;-65
2022/03/18 01:57:58;;;;;;;15.53;5.70;;;;;;;;;;5029715;28;20521;-66
2022/03/18 02:00:24;;;;;;;14.60;4.80;;;;;;;;;;5029086;28;20197;-65
2022/03/18 02:02:51;;;;;;;17.03;5.07;;;;;;;;;;5026841;28;20244;-67
2022/03/18 02:05:17;;;;;;;12.47;5.30;;;;;;;;;;5026733;28;20265;-66
2022/03/18 02:07:45;;;;;;;14.00;5.07;;;;;;;;;;5023355;28;20265;-66
2022/03/18 02:10:11;;;;;;;10.97;4.63;;;;;;;;;;5026355;28;20245;-66
2022/03/18 02:12:36;;;;;;;13.77;5.17;;;;;;;;;;5023562;28;20189;-66
2022/03/18 02:15:02;;;;;;;11.33;5.30;;;;;;;;;;5019069;28;20693;-66
2022/03/18 02:17:27;;;;;;;13.67;4.90;;;;;;;;;;5014994;28;20178;-66
2022/03/18 02:19:52;;;;;;;13.63;5.07;;;;;;;;;;5022951;28;20233;-66
2022/03/18 02:22:20;;;;;;;13.37;4.70;;;;;;;;;;5024505;28;20197;-66
2022/03/18 02:24:48;;;;;;;9.13;4.57;;;;;;;;;;5016859;28;20652;-66
2022/03/18 02:27:14;;;;;;;12.53;4.53;;;;;;;;;;5021685;28;20175;-66
2022/03/18 02:29:40;;;;;;;12.07;5.33;;;;;;;;;;5023714;28;20376;-66
2022/03/18 02:32:07;;;;;;;9.73;4.97;;;;;;;;;;5039067;28;20232;-67
2022/03/18 02:34:34;;;;;;;11.20;5.07;;;;;;;;;;5023735;28;20608;-66
2022/03/18 02:36:59;;;;;;;11.57;4.07;;;;;;;;;;5018024;28;20224;-67
2022/03/18 02:39:25;;;;;;;13.77;5.17;;;;;;;;;;5025307;28;20198;-67
2022/03/18 02:41:50;;;;;;;13.47;5.47;;;;;;;;;;5027659;28;20201;-67
2022/03/18 02:44:16;;;;;;;11.43;4.73;;;;;;;;;;5023078;28;20193;-66
2022/03/18 02:46:41;;;;;;;10.30;4.57;;;;;;;;;;5023741;28;20299;-66
2022/03/18 02:49:07;;;;;;;19.17;5.27;;;;;;;;;;5017227;28;20288;-66
2022/03/18 02:51:35;;;;;;;12.40;4.60;;;;;;;;;;5018575;28;20191;-66
2022/03/18 02:54:00;;;;;;;12.70;4.73;;;;;;;;;;5021523;28;20677;-66
2022/03/18 02:56:25;;;;;;;8.30;4.43;;;;;;;;;;5022898;28;20300;-66
2022/03/18 02:58:51;;;;;;;10.87;4.60;;;;;;;;;;5026942;28;20237;-66
2022/03/18 03:01:17;;;;;;;10.03;4.80;;;;;;;;;;5030653;28;20775;-66
2022/03/18 03:03:43;;;;;;;11.20;4.87;;;;;;;;;;5017842;28;20224;-66
2022/03/18 03:08:52;;;;;;;8.37;4.23;;;;;;;;;;5027551;28;20297;-66
2022/03/18 03:11:18;;;;;;;9.63;4.43;;;;;;;;;;5008893;28;20730;-66
2022/03/18 03:13:43;;;;;;;9.07;4.20;;;;;;;;;;5015322;28;20182;-66
2022/03/18 03:16:09;;;;;;;12.07;4.47;;;;;;;;;;5022624;28;20553;-66
2022/03/18 03:18:35;;;;;;;15.93;5.60;;;;;;;;;;5028263;28;20243;-66
2022/03/18 03:21:01;;;;;;;11.40;4.77;;;;;;;;;;5027721;28;20239;-66
2022/03/18 03:23:26;;;;;;;11.00;4.90;;;;;;;;;;5020349;28;20183;-66
2022/03/18 03:25:55;;;;;;;14.00;5.07;;;;;;;;;;5026607;28;20252;-66
2022/03/18 03:28:21;;;;;;;8.37;4.57;;;;;;;;;;5039129;28;20719;-66
2022/03/18 03:30:47;;;;;;;15.20;5.10;;;;;;;;;;5027139;28;20229;-66
2022/03/18 03:33:13;;;;;;;13.90;4.43;;;;;;;;;;5029018;28;20247;-67
2022/03/18 03:35:38;;;;;;;11.07;4.63;;;;;;;;;;5023758;28;20209;-67
2022/03/18 03:38:04;;;;;;;13.77;4.83;;;;;;;;;;5020044;28;20186;-67
2022/03/18 03:40:30;;;;;;;10.83;4.87;;;;;;;;;;5026168;28;20219;-67
2022/03/18 03:42:55;;;;;;;9.33;4.77;;;;;;;;;;5016993;28;20265;-67
2022/03/18 03:45:21;;;;;;;15.63;4.67;;;;;;;;;;5020070;28;20594;-66
2022/03/18 03:47:47;;;;;;;13.73;5.17;;;;;;;;;;5022797;28;20189;-67
2022/03/18 03:50:13;;;;;;;14.53;5.00;;;;;;;;;;5034860;28;20213;-67
2022/03/18 03:52:39;;;;;;;15.33;5.60;;;;;;;;;;5026810;28;20305;-67
2022/03/18 03:55:07;;;;;;;12.43;5.77;;;;;;;;;;5021967;28;20194;-67
2022/03/18 03:57:32;;;;;;;19.63;6.93;;;;;;;;;;5019333;28;20201;-66
2022/03/18 03:59:58;;;;;;;14.47;5.80;;;;;;;;;;5023910;28;20863;-66
2022/03/18 04:02:24;;;;;;;12.83;6.13;;;;;;;;;;5016736;28;20280;-66
2022/03/18 04:04:50;;;;;;;13.50;5.43;;;;;;;;;;5029486;28;20247;-66
2022/03/18 04:07:16;;;;;;;11.87;5.73;;;;;;;;;;5020054;28;20262;-67
2022/03/18 04:09:42;;;;;;;14.50;5.80;;;;;;;;;;5030020;28;20242;-67
2022/03/18 04:12:08;;;;;;;13.87;5.33;;;;;;;;;;5012378;28;20204;-66
2022/03/18 04:14:33;;;;;;;14.83;5.30;;;;;;;;;;5017032;28;20189;-67
2022/03/18 04:16:59;;;;;;;15.70;6.20;;;;;;;;;;5011249;28;20500;-67
2022/03/18 04:19:25;;;;;;;16.10;6.50;;;;;;;;;;5026420;28;20186;-67
2022/03/18 04:21:51;;;;;;;21.47;7.50;;;;;;;;;;5012824;28;20187;-66
2022/03/18 04:24:16;;;;;;;15.30;6.40;;;;;;;;;;5016522;28;20248;-66
2022/03/18 04:26:41;;;;;;;11.43;6.00;;;;;;;;;;5027180;28;20189;-67
2022/03/18 04:29:08;;;;;;;20.13;6.57;;;;;;;;;;5042305;28;20212;-67
2022/03/18 04:31:34;;;;;;;15.43;6.10;;;;;;;;;;5038702;28;20207;-67
2022/03/18 04:33:59;;;;;;;11.67;5.97;;;;;;;;;;5032706;28;20674;-67
2022/03/18 04:36:25;;;;;;;13.77;4.80;;;;;;;;;;5037486;28;20211;-67
2022/03/18 04:38:50;;;;;;;10.50;4.90;;;;;;;;;;5038663;28;20190;-67
2022/03/18 04:41:15;;;;;;;17.57;4.67;;;;;;;;;;5040818;28;20193;-67
2022/03/18 04:43:41;;;;;;;15.20;4.93;;;;;;;;;;5044137;28;20232;-67
2022/03/18 04:46:06;;;;;;;8.33;4.10;;;;;;;;;;5034025;28;20250;-67
2022/03/18 04:48:32;;;;;;;10.37;4.03;;;;;;;;;;5040162;28;20209;-68
2022/03/18 04:50:57;;;;;;;14.07;4.60;;;;;;;;;;5030498;28;20654;-67
2022/03/18 04:53:23;;;;;;;10.83;3.73;;;;;;;;;;5023380;28;20262;-67
2022/03/18 04:55:49;;;;;;;9.77;3.50;;;;;;;;;;5009980;28;20214;-67
2022/03/18 04:58:14;;;;;;;7.83;2.73;;;;;;;;;;5023858;28;20197;-66
2022/03/18 05:00:39;;;;;;;10.10;2.83;;;;;;;;;;5020361;28;20187;-67
2022/03/18 05:03:05;;;;;;;5.87;2.60;;;;;;;;;;5013524;28;20288;-66
2022/03/18 05:05:30;;;;;;;4.23;2.50;;;;;;;;;;5012590;28;20194;-67
2022/03/18 05:07:55;;;;;;;7.17;2.60;;;;;;;;;;5028924;28;20612;-66
2022/03/18 05:10:22;;;;;;;11.33;2.87;;;;;;;;;;5031836;28;20225;-67
2022/03/18 05:12:48;;;;;;;5.67;2.60;;;;;;;;;;5014911;28;20272;-66
2022/03/18 05:15:13;;;;;;;8.87;3.03;;;;;;;;;;5023017;28;20836;-66
2022/03/18 05:17:40;;;;;;;7.80;2.90;;;;;;;;;;5027099;28;20181;-66
2022/03/18 05:20:08;;;;;;;5.30;2.73;;;;;;;;;;5022841;28;20261;-67
2022/03/18 05:22:34;;;;;;;6.47;2.60;;;;;;;;;;5028514;28;20205;-67
2022/03/18 05:25:00;;;;;;;6.83;2.87;;;;;;;;;;5039698;28;20179;-66
2022/03/18 05:27:26;;;;;;;6.30;2.27;;;;;;;;;;5025972;28;20207;-67
2022/03/18 05:29:51;;;;;;;5.67;2.80;;;;;;;;;;5019922;28;20202;-66
2022/03/18 05:32:17;;;;;;;7.23;2.40;;;;;;;;;;5026455;28;20333;-67
2022/03/18 05:34:43;;;;;;;6.30;3.00;;;;;;;;;;5024919;28;20183;-67
2022/03/18 05:37:08;;;;;;;8.07;2.50;;;;;;;;;;5015535;28;20201;-66
2022/03/18 05:39:34;;;;;;;9.73;2.83;;;;;;;;;;5022743;28;20178;-67
2022/03/18 05:42:00;;;;;;;6.30;3.63;;;;;;;;;;5015292;28;20270;-67
2022/03/18 05:44:26;;;;;;;7.23;2.13;;;;;;;;;;5017605;28;20184;-67
2022/03/18 05:46:51;;;;;;;6.33;2.87;;;;;;;;;;5033418;28;20245;-66
2022/03/18 05:49:18;;;;;;;7.83;2.77;;;;;;;;;;5044230;28;20197;-67
2022/03/18 05:51:44;;;;;;;9.80;2.87;;;;;;;;;;5043635;28;20260;-66
2022/03/18 05:54:09;;;;;;;11.50;2.77;;;;;;;;;;5033667;28;20284;-66
2022/03/18 05:56:54;;;;;;;5.07;3.20;;;;;;;;;;5027551;28;20185;-66
2022/03/18 05:59:32;;;;;;;9.87;3.80;;;;;;;;;;5032335;28;20232;-66
2022/03/18 06:01:59;;;;;;;7.97;3.53;;;;;;;;;;5022354;28;20541;-66
2022/03/18 06:04:26;;;;;;;6.83;3.10;;;;;;;;;;5027076;28;20177;-66
2022/03/18 06:06:51;;;;;;;6.27;2.80;;;;;;;;;;5026628;28;20587;-67
2022/03/18 06:12:03;;;;;;;7.53;2.77;;;;;;;;;;5028230;28;20293;-67
2022/03/18 06:14:30;;;;;;;6.70;2.90;;;;;;;;;;5036398;28;20199;-66
2022/03/18 06:17:00;;;;;;;9.00;3.10;;;;;;;;;;5028054;28;20181;-67
2022/03/18 06:19:28;;;;;;;7.33;3.63;;;;;;;;;;5023308;28;20673;-67
2022/03/18 06:21:54;;;;;;;5.10;2.87;;;;;;;;;;5022277;28;20187;-67
2022/03/18 06:24:20;;;;;;;9.47;2.80;;;;;;;;;;5027135;28;20644;-66
2022/03/18 06:26:46;;;;;;;10.73;3.43;;;;;;;;;;5019868;28;20178;-67
2022/03/18 06:29:12;;;;;;;5.77;3.03;;;;;;;;;;5035643;28;20216;-66
2022/03/18 06:31:39;;;;;;;10.53;3.00;;;;;;;;;;5026307;28;20206;-67
2022/03/18 06:34:05;;;;;;;7.17;2.90;;;;;;;;;;5040576;28;20233;-67
2022/03/18 06:36:31;;;;;;;12.57;3.27;;;;;;;;;;5034981;28;20178;-67
2022/03/18 06:38:57;;;;;;;13.07;3.20;;;;;;;;;;5039272;28;20618;-67
2022/03/18 06:41:22;;;;;;;8.80;3.60;;;;;;;;;;5036272;28;20245;-66
2022/03/18 06:43:49;;;;;;;7.17;3.23;;;;;;;;;;5042048;28;20673;-66
2022/03/18 06:46:15;;;;;;;9.73;3.90;;;;;;;;;;5034597;28;20185;-66
2022/03/18 06:48:41;;;;;;;12.07;3.70;;;;;;;;;;5019378;28;20546;-66
2022/03/18 06:51:07;;;;;;;10.07;3.83;;;;;;;;;;5026401;28;20748;-67
2022/03/18 06:53:33;;;;;;;10.87;3.73;;;;;;;;;;5027490;28;20217;-67
2022/03/18 06:55:58;;;;;;;11.10;3.80;;;;;;;;;;5040005;28;20204;-67
2022/03/18 06:58:24;;;;;;;11.10;4.63;;;;;;;;;;5040507;28;20288;-67
2022/03/18 07:00:49;;;;;;;16.07;4.50;;;;;;;;;;5024930;28;20268;-66
2022/03/18 07:03:14;;;;;;;9.80;3.90;;;;;;;;;;5029343;28;20186;-66
2022/03/18 07:05:40;;;;;;;8.37;4.27;;;;;;;;;;5039364;28;20181;-66
2022/03/18 07:08:05;;;;;;;18.13;5.27;;;;;;;;;;5035040;28;20185;-66
2022/03/18 07:10:31;;;;;;;13.20;5.07;;;;;;;;;;5036296;28;20233;-66
2022/03/18 07:12:56;;;;;;;17.27;5.03;;;;;;;;;;5018383;28;20190;-66
2022/03/18 07:15:21;;;;;;;13.63;5.00;;;;;;;;;;5040181;28;20228;-66
2022/03/18 07:17:58;;;;;;;15.37;5.23;;;;;;;;;;5026682;28;20193;-67
2022/03/18 07:20:25;;;;;;;10.43;4.87;;;;;;;;;;5037605;28;20216;-66
2022/03/18 07:23:09;;;;;;;10.70;5.10;;;;;;;;;;5036547;28;20184;-67
2022/03/18 07:25:36;;;;;;;9.70;5.40;;;;;;;;;;5041375;28;20178;-66
2022/03/18 07:28:02;;;;;;;15.30;5.67;;;;;;;;;;5026716;28;20213;-66
2022/03/18 07:30:28;;;;;;;10.00;5.63;;;;;;;;;;5033158;28;20541;-66
2022/03/18 07:32:53;;;;;;;14.77;6.53;;;;;;;;;;5027577;28;20173;-66
2022/03/18 07:35:19;;;;;;;20.70;7.53;;;;;;;;;;5031240;28;20185;-66
2022/03/18 07:37:46;;;;;;;21.70;8.27;;;;;;;;;;5025237;28;20182;-66
2022/03/18 07:40:11;;;;;;;18.83;7.90;;;;;;;;;;5020568;28;20226;-67
2022/03/18 07:42:41;;;;;;;18.07;8.40;;;;;;;;;;5016709;28;20178;-66
2022/03/18 07:45:08;;;;;;;19.37;8.63;;;;;;;;;;5022485;28;20182;-66
2022/03/18 07:47:33;;;;;;;23.70;9.60;;;;;;;;;;5026857;28;20193;-66
2022/03/18 07:49:59;;;;;;;28.53;9.90;;;;;;;;;;5034915;28;20194;-66
2022/03/18 07:52:25;;;;;;;27.40;10.93;;;;;;;;;;5032902;28;20184;-66
2022/03/18 07:54:51;;;;;;;23.03;12.10;;;;;;;;;;5028241;28;20179;-66
2022/03/18 07:57:16;;;;;;;31.27;13.00;;;;;;;;;;5030684;28;21262;-66
2022/03/18 07:59:42;;;;;;;35.60;13.17;;;;;;;;;;5032712;28;20189;-66
2022/03/18 08:02:07;;;;;;;24.13;12.00;;;;;;;;;;5030120;28;20185;-66
2022/03/18 08:04:34;;;;;;;29.50;11.00;;;;;;;;;;5025618;28;20188;-67
2022/03/18 08:07:02;;;;;;;19.83;8.70;;;;;;;;;;5030613;28;20178;-66
2022/03/18 08:09:28;;;;;;;18.70;8.40;;;;;;;;;;5034844;28;20285;-67
2022/03/18 08:11:53;;;;;;;16.53;8.13;;;;;;;;;;5038775;28;20256;-66
2022/03/18 08:14:19;;;;;;;19.73;8.23;;;;;;;;;;5025813;28;21087;-65
2022/03/18 08:16:44;;;;;;;28.67;7.80;;;;;;;;;;5021831;28;20750;-66
2022/03/18 08:19:10;;;;;;;19.07;7.40;;;;;;;;;;5027817;28;20182;-66
2022/03/18 08:21:35;;;;;;;14.90;6.60;;;;;;;;;;5027884;28;20178;-66
2022/03/18 08:24:01;;;;;;;23.23;6.93;;;;;;;;;;5034325;28;20183;-66
2022/03/18 08:26:27;;;;;;;18.33;5.67;;;;;;;;;;5027115;28;20182;-67
2022/03/18 08:28:52;;;;;;;13.37;5.13;;;;;;;;;;5025247;28;20198;-66
2022/03/18 08:31:17;;;;;;;14.17;4.77;;;;;;;;;;5029109;28;20284;-67
2022/03/18 08:33:43;;;;;;;16.03;4.57;;;;;;;;;;5022091;28;20660;-66
2022/03/18 08:36:08;;;;;;;14.30;4.33;;;;;;;;;;5029219;28;20174;-67
2022/03/18 08:38:33;;;;;;;11.47;3.33;;;;;;;;;;5030049;28;20178;-65
2022/03/18 08:40:59;;;;;;;13.30;4.10;;;;;;;;;;5029999;28;20391;-66
2022/03/18 08:43:24;;;;;;;14.30;3.17;;;;;;;;;;5026101;28;20170;-65
2022/03/18 08:45:51;;;;;;;11.07;2.57;;;;;;;;;;5019850;28;20198;-65
2022/03/18 08:48:16;;;;;;;6.93;2.40;;;;;;;;;;5028110;28;20173;-66
2022/03/18 08:50:41;;;;;;;9.77;3.07;;;;;;;;;;5025018;28;20189;-66
2022/03/18 08:53:09;;;;;;;10.60;2.77;;;;;;;;;;5028599;28;20240;-66
2022/03/18 08:55:36;;;;;;;7.70;2.83;;;;;;;;;;5030983;28;20178;-66
2022/03/18 08:58:01;;;;;;;5.88;2.67;;;;;;;;;;5028132;28;20178;-67
2022/03/18 09:00:29;;;;;;;13.88;3.30;;;;;;;;;;5029478;28;20184;-66
2022/03/18 09:02:54;;;;;;;11.30;3.85;;;;;;;;;;5026339;28;20189;-67
2022/03/18 09:05:19;;;;;;;12.85;3.28;;;;;;;;;;5028988;28;20192;-65
2022/03/18 09:07:45;;;;;;;7.73;2.10;;;;;;;;;;5023395;28;20261;-66
2022/03/18 09:10:12;;;;;;;5.97;2.20;;;;;;;;;;5026065;28;20233;-66
2022/03/18 09:12:45;;;;;;;10.15;2.95;;;;;;;;;;5037481;28;20178;-66
2022/03/18 09:15:10;;;;;;;8.77;3.10;;;;;;;;;;5027112;28;20553;-66
2022/03/18 09:17:36;;;;;;;5.45;2.60;;;;;;;;;;5040320;28;20229;-66
2022/03/18 09:20:01;;;;;;;9.68;3.10;;;;;;;;;;5041709;28;20227;-67
2022/03/18 09:22:26;;;;;;;7.25;2.53;;;;;;;;;;5033145;28;20183;-66
2022/03/18 09:24:52;;;;;;;7.68;2.60;;;;;;;;;;5041861;28;20217;-67
2022/03/18 09:27:17;;;;;;;8.35;2.40;;;;;;;;;;5024715;28;20182;-66
2022/03/18 09:29:43;;;;;;;11.98;2.72;;;;;;;;;;5031865;28;20491;-66
2022/03/18 09:32:09;;;;;;;9.40;2.30;;;;;;;;;;5017652;28;20274;-66
2022/03/18 09:34:35;;;;;;;18.17;3.22;;;;;;;;;;5027506;28;20679;-66
2022/03/18 09:37:01;;;;;;;6.22;2.15;;;;;;;;;;5026904;28;20174;-66
2022/03/18 09:39:29;;;;;;;10.18;2.58;;;;;;;;;;5015165;28;20327;-66
2022/03/18 09:41:55;;;;;;;13.90;3.15;;;;;;;;;;5027796;28;20627;-66
2022/03/18 09:44:21;;;;;;;10.25;3.50;;;;;;;;;;5016469;28;20242;-66
2022/03/18 09:46:48;;;;;;;8.43;2.92;;;;;;;;;;5027829;28;20645;-66
2022/03/18 09:49:15;;;;;;;7.90;2.75;;;;;;;;;;5025937;28;20205;-66
2022/03/18 09:51:44;;;;;;;12.27;2.90;;;;;;;;;;5019514;28;20291;-66
2022/03/18 09:54:11;;;;;;;8.48;3.42;;;;;;;;;;5022552;28;20174;-66
2022/03/18 09:56:39;;;;;;;10.43;2.70;;;;;;;;;;5023023;28;20171;-66
2022/03/18 09:59:05;;;;;;;10.57;3.03;;;;;;;;;;5020480;28;20177;-67
2022/03/18 10:01:30;;;;;;;11.77;3.40;;;;;;;;;;5023614;28;20186;-67
2022/03/18 10:04:02;;;;;;;8.75;2.88;;;;;;;;;;5032157;28;20174;-67
2022/03/18 10:06:28;;;;;;;11.35;3.40;;;;;;;;;;5022882;28;20563;-66
2022/03/18 10:08:55;;;;;;;14.13;3.60;;;;;;;;;;5025543;28;20198;-67
2022/03/18 10:11:28;;;;;;;10.45;3.53;;;;;;;;;;5031655;28;20686;-66
2022/03/18 10:13:56;;;;;;;8.68;3.22;;;;;;;;;;5030650;28;20178;-67
2022/03/18 10:16:46;;;;;;;13.50;3.72;;;;;;;;;;5032566;28;20205;-66
2022/03/18 10:19:16;;;;;;;9.57;3.40;;;;;;;;;;5019563;28;20193;-67
2022/03/18 10:21:56;;;;;;;15.20;4.10;;;;;;;;;;5043280;28;20189;-67
2022/03/18 10:24:28;;;;;;;10.60;3.75;;;;;;;;;;5017520;28;20182;-67
2022/03/18 10:27:22;;;;;;;10.52;4.15;;;;;;;;;;5030664;28;20646;-67
2022/03/18 10:29:50;;;;;;;8.82;3.90;;;;;;;;;;5030179;28;20752;-66
2022/03/18 10:32:17;;;;;;;11.68;3.83;;;;;;;;;;5029793;28;20279;-66
2022/03/18 10:37:50;;;;;;;10.88;3.47;;;;;;;;;;5031435;28;20248;-66
2022/03/18 10:40:19;;;;;;;10.65;3.80;;;;;;;;;;5022920;28;20186;-66
2022/03/18 10:42:58;;;;;;;10.30;3.50;;;;;;;;;;5026633;28;20273;-67
2022/03/18 10:45:23;;;;;;;14.00;3.75;;;;;;;;;;5023098;28;20574;-66
2022/03/18 10:47:49;;;;;;;9.43;3.50;;;;;;;;;;5027933;28;20178;-67
2022/03/18 10:50:18;;;;;;;7.93;3.33;;;;;;;;;;5029752;28;20248;-67
2022/03/18 10:52:46;;;;;;;9.10;3.53;;;;;;;;;;5030346;28;20179;-67
2022/03/18 10:55:19;;;;;;;10.45;3.53;;;;;;;;;;5029168;28;20261;-67
2022/03/18 10:57:59;;;;;;;8.57;3.45;;;;;;;;;;5030268;28;20205;-67
2022/03/18 11:00:31;;;;;;;9.85;3.17;;;;;;;;;;5040410;28;20250;-67
2022/03/18 11:02:58;;;;;;;8.18;3.10;;;;;;;;;;5022489;28;20308;-67
2022/03/18 11:05:25;;;;;;;11.60;3.42;;;;;;;;;;5037765;28;20170;-67
2022/03/18 11:07:53;;;;;;;12.60;3.75;;;;;;;;;;5044925;28;20174;-67
2022/03/18 11:13:07;;;;;;;13.02;3.53;;;;;;;;;;5042732;28;20569;-67
2022/03/18 11:15:35;;;;;;;10.90;3.25;;;;;;;;;;5030259;28;20178;-67
2022/03/18 11:18:03;;;;;;;6.28;3.60;;;;;;;;;;5036782;28;20637;-66
2022/03/18 11:20:30;;;;;;;8.43;3.28;;;;;;;;;;5043817;28;20173;-67
2022/03/18 11:22:56;;;;;;;9.20;3.15;;;;;;;;;;5038217;28;20189;-67
2022/03/18 11:25:22;;;;;;;10.60;2.95;;;;;;;;;;5034776;28;20556;-67
2022/03/18 11:27:48;;;;;;;10.82;2.90;;;;;;;;;;5035581;28;20281;-67
2022/03/18 11:30:21;;;;;;;9.32;3.08;;;;;;;;;;5027084;28;20292;-67
2022/03/18 11:33:11;;;;;;;10.43;3.25;;;;;;;;;;5021460;28;20188;-67
2022/03/18 11:35:52;;;;;;;7.38;3.38;;;;;;;;;;5031724;28;20297;-67
2022/03/18 11:38:46;;;;;;;10.23;3.58;;;;;;;;;;5029771;28;20759;-67
2022/03/18 11:41:12;;;;;;;10.15;3.28;;;;;;;;;;5029526;28;20180;-66
2022/03/18 11:43:43;;;;;;;13.48;4.43;;;;;;;;;;5030422;28;20257;-67
2022/03/18 11:46:15;;;;;;;10.90;3.85;;;;;;;;;;5030170;28;20181;-67
2022/03/18 11:48:42;;;;;;;12.35;3.75;;;;;;;;;;5027593;28;20242;-67
2022/03/18 11:51:31;;;;;;;9.98;3.90;;;;;;;;;;5025123;28;20174;-67
2022/03/18 11:54:00;;;;;;;7.95;4.13;;;;;;;;;;5021450;28;20187;-67
2022/03/18 11:56:47;;;;;;;9.45;3.90;;;;;;;;;;5023918;28;20185;-67
2022/03/18 11:59:25;;;;;;;9.10;3.97;;;;;;;;;;5017019;28;20226;-68
2022/03/18 12:01:51;;;;;;;10.45;3.92;;;;;;;;;;5031714;28;20588;-67
2022/03/18 12:04:41;;;;;;;7.80;3.60;;;;;;;;;;5035398;28;20181;-67
2022/03/18 12:07:07;;;;;;;8.98;3.90;;;;;;;;;;5040430;28;20201;-67
2022/03/18 12:09:47;;;;;;;10.32;3.80;;;;;;;;;;5027689;28;20206;-67
2022/03/18 12:12:18;;;;;;;11.63;4.57;;;;;;;;;;5039599;28;20602;-66
2022/03/18 12:14:43;;;;;;;7.78;4.00;;;;;;;;;;5028036;28;20178;-66
2022/03/18 12:17:09;;;;;;;8.70;4.10;;;;;;;;;;5026972;28;20656;-66
2022/03/18 12:19:36;;;;;;;8.70;4.47;;;;;;;;;;5024283;28;20167;-67
2022/03/18 12:22:03;;;;;;;7.38;3.75;;;;;;;;;;5025819;28;20189;-66
2022/03/18 12:24:29;;;;;;;8.55;3.95;;;;;;;;;;5043477;28;20190;-66
2022/03/18 12:26:55;;;;;;;7.38;4.18;;;;;;;;;;5040216;28;20643;-66
2022/03/18 12:29:28;;;;;;;10.73;3.78;;;;;;;;;;5035466;28;20335;-67
2022/03/18 12:32:09;;;;;;;7.43;3.75;;;;;;;;;;5044238;28;20205;-67
2022/03/18 12:34:35;;;;;;;11.57;4.85;;;;;;;;;;5036753;28;20173;-66
2022/03/18 12:37:01;;;;;;;10.45;4.10;;;;;;;;;;5037333;28;20189;-66
2022/03/18 12:39:27;;;;;;;7.28;3.85;;;;;;;;;;5037178;28;20166;-66
2022/03/18 12:42:09;;;;;;;12.77;3.78;;;;;;;;;;5045010;28;20243;-66
2022/03/18 12:44:34;;;;;;;9.70;3.50;;;;;;;;;;5038072;28;20261;-66
2022/03/18 12:47:01;;;;;;;9.60;3.78;;;;;;;;;;5042251;28;20304;-66
2022/03/18 12:49:37;;;;;;;7.03;4.05;;;;;;;;;;5039869;28;20197;-67
2022/03/18 12:52:11;;;;;;;11.98;4.20;;;;;;;;;;5042366;28;20204;-66
2022/03/18 12:54:37;;;;;;;8.65;3.58;;;;;;;;;;5039333;28;20276;-66
2022/03/18 12:57:07;;;;;;;7.85;3.72;;;;;;;;;;5044779;28;20607;-67
2022/03/18 12:59:32;;;;;;;13.50;4.03;;;;;;;;;;5033971;28;20192;-66
2022/03/18 13:01:58;;;;;;;9.57;4.70;;;;;;;;;;5039401;28;20547;-66
2022/03/18 13:04:24;;;;;;;9.13;3.58;;;;;;;;;;5040747;28;20185;-68
2022/03/18 13:06:56;;;;;;;7.78;3.33;;;;;;;;;;5044797;28;20340;-67
2022/03/18 13:09:22;;;;;;;9.07;3.30;;;;;;;;;;5036237;28;20189;-65
2022/03/18 13:11:48;;;;;;;5.25;2.92;;;;;;;;;;5039341;28;20543;-66
2022/03/18 13:14:13;;;;;;;9.30;3.15;;;;;;;;;;5038281;28;20236;-66
2022/03/18 13:16:44;;;;;;;8.35;2.97;;;;;;;;;;5034031;28;20255;-66
2022/03/18 13:19:10;;;;;;;9.02;3.40;;;;;;;;;;5021393;28;20956;-66
2022/03/18 13:21:47;;;;;;;6.82;3.08;;;;;;;;;;5025983;28;20641;-66
2022/03/18 13:24:13;;;;;;;6.85;2.70;;;;;;;;;;5024205;28;20195;-67
2022/03/18 13:26:44;;;;;;;6.72;2.50;;;;;;;;;;5028689;28;20228;-66
2022/03/18 13:29:09;;;;;;;3.85;2.13;;;;;;;;;;5020244;28;20206;-67
2022/03/18 13:34:31;;;;;;;8.18;2.75;;;;;;;;;;5029771;28;20273;-66
2022/03/18 13:37:10;;;;;;;4.72;2.25;;;;;;;;;;5019454;28;20409;-67
2022/03/18 13:39:35;;;;;;;5.38;2.20;;;;;;;;;;5023808;28;20193;-65
2022/03/18 13:42:00;;;;;;;8.80;2.30;;;;;;;;;;5032395;28;20184;-67
2022/03/18 13:44:28;;;;;;;8.18;2.13;;;;;;;;;;5027019;28;20189;-67
2022/03/18 13:47:05;;;;;;;8.60;2.88;;;;;;;;;;5042003;28;20196;-67
2022/03/18 13:49:32;;;;;;;9.32;3.10;;;;;;;;;;5028680;28;20212;-67
2022/03/18 13:52:09;;;;;;;7.15;2.92;;;;;;;;;;5038656;28;20173;-66
2022/03/18 13:54:47;;;;;;;7.45;2.25;;;;;;;;;;5031631;28;20209;-65
2022/03/18 13:57:13;;;;;;;9.25;2.22;;;;;;;;;;5036221;28;20200;-66
2022/03/18 13:59:54;;;;;;;6.53;2.30;;;;;;;;;;5038024;28;20262;-66
2022/03/18 14:02:26;;;;;;;9.38;2.95;;;;;;;;;;5042417;28;20178;-67
2022/03/18 14:04:54;;;;;;;7.25;2.40;;;;;;;;;;5036834;28;20177;-67
2022/03/18 14:07:19;;;;;;;9.30;2.63;;;;;;;;;;5044759;28;20617;-67
2022/03/18 14:09:56;;;;;;;8.02;2.80;;;;;;;;;;5045815;28;20224;-67
2022/03/18 14:12:22;;;;;;;10.82;3.35;;;;;;;;;;5046242;28;20320;-67
2022/03/18 14:14:48;;;;;;;6.20;2.60;;;;;;;;;;5040858;28;20181;-66
2022/03/18 14:17:15;;;;;;;9.90;2.97;;;;;;;;;;5042138;28;20177;-67
2022/03/18 14:19:45;;;;;;;7.72;2.80;;;;;;;;;;5044677;28;20204;-66
2022/03/18 14:22:30;;;;;;;8.60;3.05;;;;;;;;;;5043807;28;20219;-66
2022/03/18 14:24:57;;;;;;;8.13;3.00;;;;;;;;;;5043409;28;20253;-67
2022/03/18 14:27:23;;;;;;;8.38;3.38;;;;;;;;;;5044384;28;20255;-67
2022/03/18 14:29:48;;;;;;;9.70;2.97;;;;;;;;;;5039861;28;20209;-66
2022/03/18 14:32:13;;;;;;;11.63;3.50;;;;;;;;;;5046100;28;20221;-67
2022/03/18 14:34:39;;;;;;;7.75;3.15;;;;;;;;;;5042311;28;20537;-67
2022/03/18 14:37:04;;;;;;;9.77;3.60;;;;;;;;;;5047391;28;20170;-67
2022/03/18 14:39:30;;;;;;;5.32;3.28;;;;;;;;;;5040587;28;20392;-66
2022/03/18 14:41:55;;;;;;;6.65;3.50;;;;;;;;;;5044425;28;20189;-67
2022/03/18 14:44:20;;;;;;;10.65;4.22;;;;;;;;;;5040165;28;20175;-66
2022/03/18 14:46:45;;;;;;;5.93;3.30;;;;;;;;;;5040501;28;20242;-66
2022/03/18 14:49:11;;;;;;;9.15;3.85;;;;;;;;;;5048577;28;20742;-66
2022/03/18 14:51:36;;;;;;;9.38;3.72;;;;;;;;;;5041550;28;20265;-67
2022/03/18 14:54:02;;;;;;;7.93;3.38;;;;;;;;;;5047380;28;20183;-66